Time;durP1;ratioP1;P1;durP2;ratioP2;P2;SDS_P1;SDS_P2;PMS_P1;PMS_P2;Temp;Humidity;BMP_temperature;BMP_pressure;BME280_temperature;BME280_humidity;BME280_pressure;Samples;Min_cycle;Max_cycle;Signal;HPM_P1;HPM_P2
2022/01/15 00:01:15;;;;;;;52.95;24.73;;;7.10;99.90;;;;;;5053680;28;20052;-78
2022/01/15 00:03:41;;;;;;;60.40;26.58;;;7.00;99.90;;;;;;5054329;28;20040;-78
2022/01/15 00:06:06;;;;;;;54.10;24.30;;;7.00;99.90;;;;;;5060868;28;20024;-78
2022/01/15 00:08:32;;;;;;;50.55;24.10;;;7.00;99.90;;;;;;5076403;28;20029;-78
2022/01/15 00:10:58;;;;;;;51.80;23.45;;;7.00;99.90;;;;;;5064531;28;20068;-77
2022/01/15 00:13:30;;;;;;;49.72;22.77;;;7.20;99.90;;;;;;5054306;28;20040;-77
2022/01/15 00:16:25;;;;;;;58.33;24.80;;;7.20;99.90;;;;;;5053885;28;20032;-78
2022/01/15 00:21:26;;;;;;;62.60;27.58;;;7.30;99.90;;;;;;5053722;28;20472;-77
2022/01/15 00:23:52;;;;;;;63.42;28.13;;;7.30;99.90;;;;;;5053853;28;20035;-78
2022/01/15 00:26:18;;;;;;;69.90;27.58;;;7.30;99.90;;;;;;5053535;28;20472;-78
2022/01/15 00:28:43;;;;;;;55.05;25.77;;;7.30;99.90;;;;;;5053762;28;20029;-78
2022/01/15 00:31:09;;;;;;;58.80;26.50;;;7.30;99.90;;;;;;5053641;28;20125;-78
2022/01/15 00:33:34;;;;;;;62.58;26.92;;;7.20;99.90;;;;;;5053779;28;20032;-78
2022/01/15 00:36:00;;;;;;;54.63;25.83;;;7.20;99.90;;;;;;5053303;28;20040;-78
2022/01/15 00:38:26;;;;;;;57.33;26.73;;;7.20;99.90;;;;;;5040700;28;20026;-78
2022/01/15 00:40:52;;;;;;;60.47;27.70;;;7.20;99.90;;;;;;5042266;28;20024;-78
2022/01/15 00:43:18;;;;;;;61.45;27.50;;;7.20;99.90;;;;;;5053065;28;20035;-78
2022/01/15 00:45:44;;;;;;;55.22;26.52;;;7.20;99.90;;;;;;5053778;28;20107;-78
2022/01/15 00:48:10;;;;;;;53.70;26.35;;;7.20;99.90;;;;;;5053364;28;20033;-78
2022/01/15 00:50:35;;;;;;;54.13;26.00;;;7.20;99.90;;;;;;5052699;28;20404;-79
2022/01/15 00:53:01;;;;;;;54.00;25.73;;;7.20;99.90;;;;;;5052867;28;20388;-77
2022/01/15 00:55:27;;;;;;;66.82;24.48;;;7.10;99.90;;;;;;5024645;28;20090;-78
2022/01/15 00:57:53;;;;;;;57.72;25.25;;;7.10;99.90;;;;;;5053163;28;20028;-79
2022/01/15 01:00:22;;;;;;;54.60;24.90;;;7.00;99.90;;;;;;5052776;28;20052;-78
2022/01/15 01:02:48;;;;;;;47.10;22.05;;;7.00;99.90;;;;;;5054660;28;20051;-77
2022/01/15 01:05:14;;;;;;;49.30;22.42;;;7.00;99.90;;;;;;5071317;28;20037;-78
2022/01/15 01:07:40;;;;;;;54.55;22.55;;;7.00;99.90;;;;;;5073850;28;20028;-78
2022/01/15 01:23:25;;;;;;;53.30;23.90;;;7.00;99.90;;;;;;5053911;28;20115;-78
2022/01/15 01:25:56;;;;;;;47.08;22.98;;;7.00;99.90;;;;;;5056977;28;20063;-78
2022/01/15 01:28:32;;;;;;;52.03;22.83;;;7.00;99.90;;;;;;5057443;28;20029;-78
2022/01/15 01:31:10;;;;;;;50.97;23.10;;;7.00;99.90;;;;;;5056448;28;20037;-78
2022/01/15 01:33:40;;;;;;;52.75;23.52;;;6.80;99.90;;;;;;5057059;28;20040;-78
2022/01/15 01:36:14;;;;;;;45.83;19.83;;;6.80;99.90;;;;;;5056617;28;20033;-78
2022/01/15 01:39:00;;;;;;;48.20;21.75;;;6.80;99.90;;;;;;5056788;28;20388;-78
2022/01/15 01:41:34;;;;;;;47.30;20.67;;;6.80;99.90;;;;;;5056677;28;20072;-78
2022/01/15 01:44:02;;;;;;;45.13;21.30;;;6.80;99.90;;;;;;5056776;28;20033;-78
2022/01/15 01:48:55;;;;;;;48.95;22.48;;;6.80;99.90;;;;;;5056340;28;20036;-78
2022/01/15 01:51:30;;;;;;;50.03;22.10;;;6.90;99.90;;;;;;5042821;28;20044;-78
2022/01/15 01:53:58;;;;;;;46.97;21.17;;;6.80;99.90;;;;;;5056448;28;20044;-78
2022/01/15 01:56:24;;;;;;;46.85;20.83;;;6.90;99.90;;;;;;5056416;28;20087;-78
2022/01/15 01:58:49;;;;;;;45.85;19.67;;;6.80;99.90;;;;;;5057342;28;20028;-79
2022/01/15 02:01:15;;;;;;;46.58;19.20;;;6.80;99.90;;;;;;5060349;28;20052;-78
2022/01/15 02:03:40;;;;;;;45.60;19.83;;;6.80;99.90;;;;;;5076633;28;20017;-78
2022/01/15 02:06:06;;;;;;;42.92;20.05;;;6.80;99.90;;;;;;5070396;28;20119;-78
2022/01/15 02:08:34;;;;;;;37.17;18.35;;;6.80;99.90;;;;;;5056754;28;20063;-78
2022/01/15 02:11:03;;;;;;;43.63;19.27;;;6.80;99.90;;;;;;5055739;28;20048;-78
2022/01/15 02:13:30;;;;;;;42.20;18.98;;;6.80;99.90;;;;;;5056358;28;20021;-78
2022/01/15 02:15:59;;;;;;;36.65;16.55;;;6.80;99.90;;;;;;5055689;28;20052;-78
2022/01/15 02:18:26;;;;;;;39.15;16.88;;;6.80;99.90;;;;;;5056339;28;20031;-78
2022/01/15 02:23:33;;;;;;;34.97;17.13;;;6.80;99.90;;;;;;5055066;28;20029;-78
2022/01/15 02:23:50;;;;;;;37.28;15.68;;;6.80;99.90;;;;;;5056169;28;20057;-78
2022/01/15 02:26:24;;;;;;;35.45;16.42;;;6.80;99.90;;;;;;5055458;28;20550;-78
2022/01/15 02:28:59;;;;;;;33.72;16.00;;;6.80;99.90;;;;;;5055798;28;20036;-78
2022/01/15 02:31:26;;;;;;;34.83;15.80;;;6.70;99.90;;;;;;5044435;28;20033;-78
2022/01/15 02:33:54;;;;;;;34.15;14.50;;;6.70;99.90;;;;;;5055286;28;20036;-78
2022/01/15 02:36:23;;;;;;;34.45;15.88;;;6.70;99.90;;;;;;5055981;28;20047;-78
2022/01/15 02:38:50;;;;;;;34.65;15.23;;;6.70;99.90;;;;;;5055873;28;20033;-78
2022/01/15 02:41:28;;;;;;;34.88;15.23;;;6.60;99.90;;;;;;5054299;28;20049;-77
2022/01/15 02:43:56;;;;;;;32.63;14.73;;;6.70;99.90;;;;;;5055332;28;20547;-77
2022/01/15 02:46:34;;;;;;;36.28;15.50;;;6.70;99.90;;;;;;5054959;28;20020;-78
2022/01/15 02:49:05;;;;;;;33.95;14.93;;;6.70;99.90;;;;;;5055284;28;20029;-77
2022/01/15 02:51:34;;;;;;;30.75;14.43;;;6.60;99.90;;;;;;5055678;28;20033;-77
2022/01/15 02:54:00;;;;;;;33.00;14.38;;;6.60;99.90;;;;;;5055453;28;20029;-77
2022/01/15 02:56:29;;;;;;;32.63;15.05;;;6.60;99.90;;;;;;5055133;28;20029;-77
2022/01/15 02:58:55;;;;;;;31.33;14.60;;;6.70;99.90;;;;;;5060074;28;20029;-78
2022/01/15 03:01:21;;;;;;;30.60;13.48;;;6.70;99.90;;;;;;5075836;28;20127;-79
2022/01/15 03:03:47;;;;;;;25.92;12.63;;;6.70;99.90;;;;;;5070139;28;20021;-79
2022/01/15 03:06:15;;;;;;;30.17;13.70;;;6.70;99.90;;;;;;5055739;28;20031;-79
2022/01/15 03:08:42;;;;;;;25.95;13.18;;;6.70;99.90;;;;;;5054891;28;20029;-79
2022/01/15 03:11:09;;;;;;;27.70;13.63;;;6.60;99.90;;;;;;5054616;28;20361;-78
2022/01/15 03:13:36;;;;;;;27.65;12.75;;;6.60;99.90;;;;;;5055092;28;20476;-80
2022/01/15 03:16:02;;;;;;;28.98;13.88;;;6.60;99.90;;;;;;5054812;28;20534;-79
2022/01/15 03:18:28;;;;;;;26.90;12.35;;;6.70;99.90;;;;;;5054933;28;20033;-79
2022/01/15 03:20:54;;;;;;;26.15;12.55;;;6.60;99.90;;;;;;5054616;28;20029;-79
2022/01/15 03:23:19;;;;;;;29.02;13.77;;;6.70;99.90;;;;;;5055540;28;20029;-78
2022/01/15 03:25:45;;;;;;;29.92;13.60;;;6.70;99.90;;;;;;5055000;28;20357;-79
2022/01/15 03:28:11;;;;;;;31.52;14.05;;;6.70;99.90;;;;;;5054898;28;20476;-80
2022/01/15 03:30:37;;;;;;;32.67;13.68;;;6.70;99.90;;;;;;5054302;28;20404;-78
2022/01/15 03:33:03;;;;;;;32.20;13.82;;;6.80;99.90;;;;;;5055225;28;20031;-79
2022/01/15 03:35:28;;;;;;;34.35;14.27;;;6.70;99.90;;;;;;5054451;28;20112;-78
2022/01/15 03:37:54;;;;;;;31.33;14.00;;;6.70;99.90;;;;;;5054813;28;20021;-78
2022/01/15 03:40:20;;;;;;;35.25;13.90;;;6.70;99.90;;;;;;5054152;28;20068;-77
2022/01/15 03:42:46;;;;;;;33.42;14.35;;;6.70;99.90;;;;;;5030726;28;20022;-77
2022/01/15 03:45:14;;;;;;;32.10;13.70;;;6.60;99.90;;;;;;5015992;28;20047;-79
2022/01/15 03:47:41;;;;;;;31.05;14.05;;;6.50;99.90;;;;;;5029006;28;20041;-79
2022/01/15 03:50:07;;;;;;;29.35;12.73;;;6.50;99.90;;;;;;5022512;28;20523;-78
2022/01/15 03:52:33;;;;;;;24.65;10.35;;;6.50;99.90;;;;;;5019427;28;20184;-79
2022/01/15 03:54:59;;;;;;;22.42;10.43;;;6.40;99.90;;;;;;5026036;28;20121;-78
2022/01/15 03:57:24;;;;;;;26.35;11.77;;;6.30;99.90;;;;;;5042080;28;20097;-79
2022/01/15 03:59:50;;;;;;;24.88;10.65;;;6.30;99.90;;;;;;5057103;28;20065;-79
2022/01/15 04:02:16;;;;;;;23.25;10.35;;;6.20;99.90;;;;;;5041932;28;20116;-78
2022/01/15 04:04:41;;;;;;;23.83;11.20;;;6.20;99.90;;;;;;5034712;28;20022;-79
2022/01/15 04:07:07;;;;;;;20.27;10.10;;;6.20;99.90;;;;;;5053436;28;20388;-79
2022/01/15 04:09:33;;;;;;;19.45;9.57;;;6.20;99.90;;;;;;5054065;28;20033;-79
2022/01/15 04:11:58;;;;;;;23.63;10.60;;;6.30;99.90;;;;;;5053705;28;20389;-78
2022/01/15 04:14:24;;;;;;;22.98;10.98;;;6.30;99.90;;;;;;5053882;28;20079;-78
2022/01/15 04:16:50;;;;;;;22.67;10.98;;;6.30;99.90;;;;;;5053764;28;20095;-80
2022/01/15 04:19:15;;;;;;;24.17;11.13;;;6.30;99.90;;;;;;5053666;28;20082;-78
2022/01/15 04:21:41;;;;;;;20.02;10.50;;;6.30;99.90;;;;;;5053639;28;20032;-79
2022/01/15 04:24:07;;;;;;;20.60;10.45;;;6.30;99.90;;;;;;5053422;28;20538;-78
2022/01/15 04:26:33;;;;;;;20.33;10.13;;;6.40;99.90;;;;;;5054039;28;20536;-79
2022/01/15 04:29:04;;;;;;;21.80;10.77;;;6.40;99.90;;;;;;5053961;28;20039;-79
2022/01/15 04:31:48;;;;;;;23.05;12.18;;;6.40;99.90;;;;;;5053425;28;20048;-79
2022/01/15 04:34:15;;;;;;;;;;;6.40;99.90;;;;;;5053984;28;20036;-79
2022/01/15 04:36:40;;;;;;;22.08;11.65;;;6.40;99.90;;;;;;5047413;28;19904;-78
2022/01/15 04:39:06;;;;;;;20.60;11.32;;;6.30;99.90;;;;;;5034392;28;20029;-77
2022/01/15 04:41:32;;;;;;;22.95;12.73;;;6.30;99.90;;;;;;5052102;28;20025;-78
2022/01/15 04:43:57;;;;;;;23.50;13.30;;;6.20;99.90;;;;;;5053446;28;20033;-78
2022/01/15 04:46:23;;;;;;;24.55;13.27;;;6.20;99.90;;;;;;5053002;28;20025;-78
2022/01/15 04:48:48;;;;;;;24.13;13.63;;;6.20;99.90;;;;;;5053268;28;20045;-78
2022/01/15 04:51:14;;;;;;;23.23;14.38;;;6.10;99.90;;;;;;5052789;28;20041;-78
2022/01/15 04:53:40;;;;;;;25.33;15.55;;;6.10;99.90;;;;;;5053711;28;20096;-78
2022/01/15 04:56:05;;;;;;;27.33;16.60;;;6.10;99.90;;;;;;5066876;28;20028;-78
2022/01/15 04:58:31;;;;;;;27.70;16.08;;;6.10;99.90;;;;;;5076165;28;20081;-78
2022/01/15 05:00:56;;;;;;;26.88;17.25;;;6.00;99.90;;;;;;5056310;28;20057;-83
2022/01/15 05:03:22;;;;;;;28.20;16.80;;;6.00;99.90;;;;;;5053496;28;20025;-78
2022/01/15 05:05:47;;;;;;;31.70;17.48;;;6.00;99.90;;;;;;5052740;28;20444;-80
2022/01/15 05:08:13;;;;;;;29.10;18.02;;;5.90;99.90;;;;;;5053537;28;20457;-80
2022/01/15 05:10:45;;;;;;;32.75;18.45;;;5.90;99.90;;;;;;5052972;28;20041;-78
2022/01/15 05:13:14;;;;;;;32.22;17.70;;;5.90;99.90;;;;;;5053511;28;20021;-78
2022/01/15 05:15:42;;;;;;;28.50;16.35;;;6.00;99.90;;;;;;5052975;28;20029;-77
2022/01/15 05:18:08;;;;;;;29.92;17.67;;;6.00;99.90;;;;;;5053068;28;20040;-79
2022/01/15 05:20:34;;;;;;;28.50;16.63;;;6.00;99.90;;;;;;5053121;28;20029;-79
2022/01/15 05:23:00;;;;;;;30.48;16.95;;;6.00;99.90;;;;;;5042790;28;20037;-80
2022/01/15 05:25:25;;;;;;;26.85;16.15;;;6.00;99.90;;;;;;5046471;28;20051;-79
2022/01/15 05:27:51;;;;;;;42.55;17.33;;;6.00;99.90;;;;;;5034964;28;20022;-80
2022/01/15 05:30:17;;;;;;;36.60;18.80;;;6.00;99.90;;;;;;5037273;28;20040;-78
2022/01/15 05:32:42;;;;;;;32.22;17.48;;;6.00;99.90;;;;;;5053075;28;20554;-78
2022/01/15 05:35:09;;;;;;;33.00;17.70;;;5.90;99.90;;;;;;5053071;28;20098;-78
2022/01/15 05:37:35;;;;;;;33.72;17.25;;;5.90;99.90;;;;;;5052965;28;20052;-79
2022/01/15 05:40:01;;;;;;;36.28;18.83;;;6.00;99.90;;;;;;5053201;28;20025;-78
2022/01/15 05:42:27;;;;;;;32.00;17.58;;;6.00;99.90;;;;;;5053125;28;20041;-78
2022/01/15 05:44:52;;;;;;;37.20;18.05;;;6.10;99.90;;;;;;5052847;28;20021;-80
2022/01/15 05:47:18;;;;;;;34.45;18.45;;;6.10;99.90;;;;;;5052972;28;20487;-81
2022/01/15 05:49:44;;;;;;;35.35;18.83;;;6.10;99.90;;;;;;5052979;28;20427;-81
2022/01/15 05:52:09;;;;;;;33.25;18.90;;;6.10;99.90;;;;;;5053416;28;20089;-78
2022/01/15 05:54:35;;;;;;;41.75;18.75;;;6.30;99.90;;;;;;5071911;28;20100;-79
2022/01/15 05:57:00;;;;;;;35.03;19.23;;;6.30;99.90;;;;;;5073872;28;20039;-77
2022/01/15 05:59:26;;;;;;;32.30;18.00;;;6.30;99.90;;;;;;5052908;28;20516;-77
2022/01/15 06:01:52;;;;;;;33.78;18.25;;;6.30;99.90;;;;;;5052989;28;20468;-81
2022/01/15 06:04:18;;;;;;;37.78;18.27;;;6.30;99.90;;;;;;5052624;28;20087;-83
2022/01/15 06:06:43;;;;;;;58.50;18.88;;;6.20;99.90;;;;;;5052836;28;20037;-87
2022/01/15 06:09:09;;;;;;;37.20;19.73;;;6.20;99.90;;;;;;5053051;28;20029;-77
2022/01/15 06:11:35;;;;;;;52.53;18.70;;;6.10;99.90;;;;;;5056002;28;20064;-80
2022/01/15 06:14:01;;;;;;;36.13;17.98;;;6.00;99.90;;;;;;5056132;28;20477;-79
2022/01/15 06:16:27;;;;;;;31.05;15.98;;;5.90;99.90;;;;;;5056433;28;20033;-78
2022/01/15 06:18:53;;;;;;;36.15;17.05;;;5.90;99.90;;;;;;5055523;28;20033;-78
2022/01/15 06:21:18;;;;;;;33.20;16.17;;;6.00;99.90;;;;;;5056038;28;20117;-78
2022/01/15 06:23:44;;;;;;;37.90;15.77;;;5.90;99.90;;;;;;5056301;28;20174;-85
2022/01/15 06:26:10;;;;;;;32.88;15.35;;;6.00;99.90;;;;;;5055541;28;20039;-76
2022/01/15 06:28:35;;;;;;;45.00;16.55;;;6.00;99.90;;;;;;5055522;28;20555;-76
2022/01/15 06:31:01;;;;;;;59.10;15.80;;;6.00;99.90;;;;;;5054927;28;20123;-76
2022/01/15 06:33:26;;;;;;;39.65;17.10;;;5.80;99.90;;;;;;5055629;28;20110;-76
2022/01/15 06:35:52;;;;;;;29.13;15.25;;;5.80;99.90;;;;;;5055244;28;20384;-76
2022/01/15 06:38:18;;;;;;;67.38;18.15;;;5.80;99.90;;;;;;5055973;28;20056;-76
2022/01/15 06:40:43;;;;;;;47.15;17.38;;;5.80;99.90;;;;;;5055282;28;20455;-76
2022/01/15 06:43:10;;;;;;;44.20;17.10;;;5.60;99.90;;;;;;5055272;28;20028;-77
2022/01/15 06:45:35;;;;;;;39.97;18.00;;;5.60;99.90;;;;;;5053093;28;20068;-77
2022/01/15 06:48:02;;;;;;;46.58;19.40;;;5.60;99.90;;;;;;5035739;28;20048;-77
2022/01/15 06:50:28;;;;;;;43.92;19.65;;;5.70;99.90;;;;;;5038270;28;20033;-77
2022/01/15 06:52:54;;;;;;;68.70;21.52;;;5.70;99.90;;;;;;5052817;28;20021;-77
2022/01/15 06:55:21;;;;;;;44.65;20.77;;;5.70;99.90;;;;;;5062564;28;20088;-77
2022/01/15 06:57:47;;;;;;;49.30;19.77;;;5.50;99.90;;;;;;5055591;28;20061;-77
2022/01/15 07:00:14;;;;;;;68.00;24.15;;;5.60;99.90;;;;;;5037883;28;20087;-78
2022/01/15 07:02:42;;;;;;;47.15;21.63;;;5.60;99.90;;;;;;5036774;28;20049;-78
2022/01/15 07:05:09;;;;;;;43.33;20.80;;;5.60;99.90;;;;;;5037319;28;20071;-78
2022/01/15 07:07:35;;;;;;;54.22;21.98;;;5.70;99.90;;;;;;5034206;28;20042;-78
2022/01/15 07:10:01;;;;;;;74.50;21.42;;;5.70;99.90;;;;;;5037195;28;20033;-78
2022/01/15 07:12:27;;;;;;;61.55;21.33;;;5.70;99.90;;;;;;5037032;28;20025;-77
2022/01/15 07:14:53;;;;;;;50.83;21.20;;;5.60;99.90;;;;;;5036051;28;20033;-77
2022/01/15 07:17:18;;;;;;;45.55;20.88;;;5.50;99.90;;;;;;5037517;28;20065;-77
2022/01/15 07:19:44;;;;;;;46.35;22.75;;;5.50;99.90;;;;;;5050209;28;20037;-77
2022/01/15 07:22:10;;;;;;;44.10;22.08;;;5.50;99.90;;;;;;5054655;28;20051;-78
2022/01/15 07:24:35;;;;;;;38.28;20.48;;;5.50;99.90;;;;;;5049945;28;20033;-77
2022/01/15 07:27:02;;;;;;;51.78;20.98;;;5.60;99.90;;;;;;5053700;28;20495;-76
2022/01/15 07:29:30;;;;;;;52.97;23.05;;;5.70;99.90;;;;;;5054001;28;20424;-77
2022/01/15 07:31:56;;;;;;;49.90;22.98;;;5.80;99.90;;;;;;5053911;28;20064;-78
2022/01/15 07:34:22;;;;;;;62.88;22.35;;;5.90;99.90;;;;;;5054384;28;20053;-77
2022/01/15 07:36:55;;;;;;;53.50;22.33;;;5.80;99.90;;;;;;5026813;28;20037;-77
2022/01/15 07:39:21;;;;;;;46.55;22.65;;;5.80;99.90;;;;;;5025625;28;20065;-77
2022/01/15 07:41:47;;;;;;;56.17;24.45;;;5.70;99.90;;;;;;5026278;28;20430;-77
2022/01/15 07:44:13;;;;;;;70.07;24.42;;;5.80;99.90;;;;;;5032628;28;20159;-77
2022/01/15 07:46:38;;;;;;;112.22;25.95;;;5.80;99.90;;;;;;5023142;28;20339;-76
2022/01/15 07:49:04;;;;;;;63.17;25.50;;;5.80;99.90;;;;;;5017401;28;20095;-76
2022/01/15 07:51:29;;;;;;;67.57;27.73;;;5.70;99.90;;;;;;5032241;28;20033;-76
2022/01/15 07:53:55;;;;;;;65.40;26.35;;;5.70;99.90;;;;;;5032795;28;20026;-79
2022/01/15 07:56:21;;;;;;;60.67;26.50;;;5.70;99.90;;;;;;5037086;28;20457;-81
2022/01/15 07:58:47;;;;;;;79.25;26.90;;;5.70;99.90;;;;;;5049857;28;20032;-81
2022/01/15 08:01:13;;;;;;;66.15;27.88;;;5.70;99.90;;;;;;5053350;28;20075;-81
2022/01/15 08:03:39;;;;;;;88.80;26.33;;;5.70;99.90;;;;;;5053828;28;20037;-83
2022/01/15 08:06:06;;;;;;;101.35;25.80;;;5.60;99.90;;;;;;5053832;28;20025;-83
2022/01/15 08:08:33;;;;;;;89.43;26.80;;;5.50;99.90;;;;;;5053551;28;20520;-84
2022/01/15 08:10:58;;;;;;;74.75;27.73;;;5.40;99.90;;;;;;5053357;28;20076;-83
2022/01/15 08:13:25;;;;;;;69.03;28.75;;;5.40;99.90;;;;;;5052966;28;20068;-81
2022/01/15 08:15:52;;;;;;;70.55;28.67;;;5.40;99.90;;;;;;5052352;28;20029;-79
2022/01/15 08:18:18;;;;;;;96.57;30.23;;;5.50;99.90;;;;;;5053514;28;20043;-78
2022/01/15 08:20:45;;;;;;;99.47;29.52;;;5.60;99.90;;;;;;5052884;28;20036;-81
2022/01/15 08:23:10;;;;;;;74.03;28.02;;;5.70;99.90;;;;;;5053211;28;20093;-81
2022/01/15 08:25:36;;;;;;;82.88;28.55;;;5.60;99.90;;;;;;5052587;28;20116;-80
2022/01/15 08:28:01;;;;;;;67.00;28.38;;;5.70;99.90;;;;;;5053729;28;20112;-81
2022/01/15 08:30:27;;;;;;;91.28;33.42;;;5.70;99.90;;;;;;5053034;28;20072;-81
2022/01/15 08:32:53;;;;;;;72.22;29.70;;;5.70;99.90;;;;;;5052916;28;20044;-83
2022/01/15 08:35:18;;;;;;;70.10;28.63;;;5.60;99.90;;;;;;5052802;28;20036;-79
2022/01/15 08:37:44;;;;;;;76.03;31.33;;;5.60;99.90;;;;;;5045406;28;20075;-77
2022/01/15 08:40:15;;;;;;;87.68;32.15;;;5.60;99.90;;;;;;5042781;28;20373;-76
2022/01/15 08:42:41;;;;;;;78.07;32.47;;;5.60;99.90;;;;;;5053325;28;20021;-76
2022/01/15 08:45:09;;;;;;;74.88;28.45;;;5.60;99.90;;;;;;5052150;28;20028;-76
2022/01/15 08:47:34;;;;;;;85.32;29.60;;;5.70;99.90;;;;;;5050768;28;20029;-79
2022/01/15 08:50:00;;;;;;;77.45;28.17;;;5.80;99.90;;;;;;5062470;28;20039;-80
2022/01/15 08:52:26;;;;;;;74.32;28.55;;;5.70;99.90;;;;;;5055531;28;20025;-77
2022/01/15 08:54:51;;;;;;;112.40;30.08;;;5.80;99.90;;;;;;5053205;28;20029;-76
2022/01/15 08:57:17;;;;;;;73.13;28.95;;;5.80;99.90;;;;;;5053372;28;20032;-77
2022/01/15 08:59:43;;;;;;;107.15;29.92;;;5.70;99.90;;;;;;5052293;28;20033;-76
2022/01/15 09:02:10;;;;;;;67.20;27.52;;;5.80;99.90;;;;;;5052787;28;20120;-76
2022/01/15 09:04:36;;;;;;;70.80;26.65;;;5.80;99.90;;;;;;5053183;28;20043;-76
2022/01/15 09:07:02;;;;;;;104.45;30.13;;;5.90;99.90;;;;;;5052487;28;20033;-75
2022/01/15 09:09:28;;;;;;;79.38;29.55;;;6.00;99.90;;;;;;5052597;28;20111;-76
2022/01/15 09:11:53;;;;;;;62.17;28.20;;;5.90;99.90;;;;;;5052871;28;20075;-76
2022/01/15 09:14:22;;;;;;;97.20;29.90;;;5.90;99.90;;;;;;5052896;28;20383;-75
2022/01/15 09:16:47;;;;;;;76.07;28.98;;;5.90;99.90;;;;;;5052202;28;20040;-75
2022/01/15 09:19:13;;;;;;;63.25;28.70;;;5.90;99.90;;;;;;5052750;28;20021;-75
2022/01/15 09:21:39;;;;;;;76.85;31.25;;;6.00;99.90;;;;;;5052862;28;20447;-75
2022/01/15 09:24:05;;;;;;;99.05;31.95;;;6.00;99.90;;;;;;5052783;28;20017;-75
2022/01/15 09:30:12;;;;;;;88.68;29.75;;;6.00;99.90;;;;;;5052556;28;20029;-76
2022/01/15 09:32:03;;;;;;;67.50;28.38;;;6.00;99.90;;;;;;5052418;28;20575;-75
2022/01/15 09:34:28;;;;;;;73.80;29.15;;;6.10;99.90;;;;;;5052730;28;20024;-75
2022/01/15 09:36:54;;;;;;;65.90;27.95;;;6.20;99.90;;;;;;5052274;28;20150;-75
2022/01/15 09:39:20;;;;;;;63.53;27.15;;;6.30;99.90;;;;;;5052473;28;20025;-75
2022/01/15 09:41:48;;;;;;;72.57;30.08;;;6.40;99.90;;;;;;5052532;28;20029;-75
2022/01/15 09:44:17;;;;;;;99.72;30.75;;;6.40;99.90;;;;;;5053369;28;20033;-75
2022/01/15 09:46:45;;;;;;;71.13;27.98;;;6.50;99.90;;;;;;5063340;28;20039;-72
2022/01/15 09:49:14;;;;;;;58.75;26.83;;;6.40;99.90;;;;;;5062448;28;20036;-75
2022/01/15 09:51:39;;;;;;;51.10;24.40;;;6.40;99.90;;;;;;5056478;28;20048;-75
2022/01/15 09:54:05;;;;;;;49.55;24.55;;;6.30;99.90;;;;;;5056238;28;20025;-75
2022/01/15 09:56:33;;;;;;;56.45;25.00;;;6.40;99.90;;;;;;5056022;28;20477;-75
2022/01/15 09:59:02;;;;;;;55.33;24.17;;;6.40;99.90;;;;;;5055960;28;20075;-77
2022/01/15 10:01:29;;;;;;;57.40;24.73;;;6.50;99.90;;;;;;5053569;28;20048;-76
2022/01/15 10:03:56;;;;;;;57.55;24.60;;;6.50;99.90;;;;;;5055661;28;20451;-74
2022/01/15 10:06:22;;;;;;;68.10;26.52;;;6.40;99.90;;;;;;5055897;28;20021;-75
2022/01/15 10:09:04;;;;;;;49.03;23.40;;;6.40;99.90;;;;;;5055815;28;20079;-76
2022/01/15 10:11:48;;;;;;;64.18;24.77;;;6.40;99.90;;;;;;5055792;28;20059;-75
2022/01/15 10:14:31;;;;;;;43.72;22.30;;;6.40;99.90;;;;;;5055873;28;20029;-75
2022/01/15 10:17:00;;;;;;;53.08;25.33;;;6.20;99.90;;;;;;5055971;28;20103;-76
2022/01/15 10:19:37;;;;;;;54.13;23.25;;;6.30;99.90;;;;;;5055442;28;20044;-76
2022/01/15 10:22:12;;;;;;;75.65;26.75;;;6.30;99.90;;;;;;5055737;28;20379;-76
2022/01/15 10:24:41;;;;;;;56.33;25.25;;;6.30;99.90;;;;;;5059564;28;20017;-76
2022/01/15 10:27:23;;;;;;;62.70;27.42;;;6.20;99.90;;;;;;5055459;28;20029;-76
2022/01/15 10:30:09;;;;;;;73.18;26.75;;;6.20;99.90;;;;;;5054973;28;20550;-76
2022/01/15 10:32:40;;;;;;;63.50;26.58;;;6.30;99.90;;;;;;5055031;28;20570;-76
2022/01/15 10:35:16;;;;;;;76.80;28.35;;;6.30;99.90;;;;;;5055172;28;20025;-76
2022/01/15 10:37:53;;;;;;;52.88;25.70;;;6.40;99.90;;;;;;5055848;28;20116;-76
2022/01/15 10:40:27;;;;;;;81.25;26.52;;;6.40;99.90;;;;;;5031157;28;20033;-76
2022/01/15 10:42:56;;;;;;;56.55;26.58;;;6.40;99.90;;;;;;5019548;28;20057;-76
2022/01/15 10:45:24;;;;;;;60.63;25.60;;;6.40;99.90;;;;;;5033573;28;20021;-76
2022/01/15 10:47:53;;;;;;;64.38;26.90;;;6.40;99.90;;;;;;5055424;28;20049;-76
2022/01/15 10:50:26;;;;;;;70.93;25.30;;;6.40;99.90;;;;;;5054719;28;20044;-76
2022/01/15 10:52:53;;;;;;;51.70;25.08;;;6.50;99.90;;;;;;5055442;28;20017;-76
2022/01/15 10:55:25;;;;;;;66.63;27.67;;;6.50;99.90;;;;;;5054163;28;20116;-77
2022/01/15 10:57:53;;;;;;;87.10;27.37;;;6.40;99.90;;;;;;5055244;28;20393;-76
2022/01/15 11:00:20;;;;;;;65.05;28.50;;;6.40;99.90;;;;;;5054775;28;20291;-77
2022/01/15 11:02:52;;;;;;;76.25;29.48;;;6.40;99.90;;;;;;5055159;28;20380;-77
2022/01/15 11:05:22;;;;;;;59.08;27.02;;;6.50;99.90;;;;;;5054551;28;20028;-77
2022/01/15 11:07:48;;;;;;;68.50;25.67;;;6.40;99.90;;;;;;5022442;28;20024;-77
2022/01/15 11:10:14;;;;;;;50.22;24.48;;;6.40;99.90;;;;;;5054147;28;20036;-77
2022/01/15 11:12:40;;;;;;;79.18;23.05;;;6.40;99.90;;;;;;5038394;28;20033;-74
2022/01/15 11:15:07;;;;;;;73.70;23.92;;;6.40;99.90;;;;;;5017032;28;20420;-76
2022/01/15 11:17:33;;;;;;;48.78;23.00;;;6.30;99.90;;;;;;5032577;28;20032;-76
2022/01/15 11:20:04;;;;;;;49.35;23.30;;;6.30;99.90;;;;;;5027465;28;20025;-77
2022/01/15 11:22:32;;;;;;;69.35;24.75;;;6.30;99.90;;;;;;5031635;28;20039;-77
2022/01/15 11:24:58;;;;;;;60.25;24.30;;;6.30;99.90;;;;;;5020552;28;20029;-77
2022/01/15 11:27:28;;;;;;;51.92;23.00;;;6.30;99.90;;;;;;5031442;28;20075;-76
2022/01/15 11:29:57;;;;;;;43.63;21.38;;;6.30;99.90;;;;;;5032050;28;20033;-77
2022/01/15 11:32:27;;;;;;;50.78;21.75;;;6.30;99.90;;;;;;5019050;28;20393;-77
2022/01/15 11:35:06;;;;;;;60.83;22.77;;;6.20;99.90;;;;;;5044478;28;20025;-74
2022/01/15 11:37:46;;;;;;;66.25;24.08;;;6.10;99.90;;;;;;5048681;28;20037;-74
2022/01/15 11:40:39;;;;;;;145.55;25.35;;;6.10;99.90;;;;;;5044454;28;20029;-75
2022/01/15 11:43:31;;;;;;;60.40;23.52;;;6.10;99.90;;;;;;5036407;28;20064;-77
2022/01/15 11:46:02;;;;;;;50.92;22.38;;;6.20;99.90;;;;;;5054123;28;20056;-76
2022/01/15 11:48:30;;;;;;;53.00;22.05;;;6.20;99.90;;;;;;5054606;28;20056;-77
2022/01/15 11:51:13;;;;;;;46.17;21.80;;;6.20;99.90;;;;;;5053902;28;20116;-77
2022/01/15 11:53:47;;;;;;;61.58;24.48;;;6.20;99.90;;;;;;5054046;28;20032;-77
2022/01/15 11:56:17;;;;;;;61.95;23.38;;;6.20;99.90;;;;;;5053713;28;20040;-77
2022/01/15 11:58:43;;;;;;;72.75;22.75;;;6.20;99.90;;;;;;5053537;28;20488;-77
2022/01/15 12:01:31;;;;;;;51.97;23.80;;;6.10;99.90;;;;;;5053554;28;20055;-77
2022/01/15 12:04:26;;;;;;;57.30;23.30;;;6.20;99.90;;;;;;5053696;28;20032;-77
2022/01/15 12:07:06;;;;;;;45.47;22.38;;;6.30;99.90;;;;;;5050181;28;20507;-75
2022/01/15 12:09:45;;;;;;;45.30;22.02;;;6.30;99.90;;;;;;5053251;28;20029;-75
2022/01/15 12:12:39;;;;;;;47.00;22.65;;;6.40;99.90;;;;;;5053804;28;20052;-75
2022/01/15 12:15:06;;;;;;;;;;;6.50;99.90;;;;;;5027926;28;20039;-75
2022/01/15 12:17:39;;;;;;;54.28;21.40;;;6.50;99.90;;;;;;5053415;28;19911;-75
2022/01/15 12:20:06;;;;;;;54.42;22.52;;;6.50;99.90;;;;;;5052929;28;20024;-75
2022/01/15 12:22:45;;;;;;;63.08;20.65;;;6.50;99.90;;;;;;5053075;28;20037;-75
2022/01/15 12:25:34;;;;;;;49.78;21.02;;;6.40;99.90;;;;;;5053016;28;20085;-75
2022/01/15 12:28:09;;;;;;;45.28;23.25;;;6.40;99.90;;;;;;5023064;28;20032;-75
2022/01/15 12:30:40;;;;;;;52.15;22.17;;;6.40;99.90;;;;;;5053020;28;20044;-75
2022/01/15 12:33:08;;;;;;;41.03;21.50;;;6.30;99.90;;;;;;5053185;28;20029;-76
2022/01/15 12:35:37;;;;;;;56.03;22.90;;;6.30;99.90;;;;;;5052929;28;20037;-76
2022/01/15 12:38:13;;;;;;;47.97;21.27;;;6.40;99.90;;;;;;5038136;28;20029;-74
2022/01/15 12:40:45;;;;;;;48.92;22.13;;;6.30;99.90;;;;;;5050584;28;20102;-74
2022/01/15 12:43:13;;;;;;;45.03;21.80;;;6.30;99.90;;;;;;5052734;28;20044;-76
2022/01/15 12:45:39;;;;;;;51.58;24.10;;;6.30;99.90;;;;;;5052798;28;20495;-76
2022/01/15 12:48:10;;;;;;;59.50;24.75;;;6.40;99.90;;;;;;5053376;28;20045;-76
2022/01/15 12:50:45;;;;;;;54.45;23.48;;;6.40;99.90;;;;;;5036927;28;20198;-75
2022/01/15 12:53:11;;;;;;;57.15;24.42;;;6.30;99.90;;;;;;5053064;28;20041;-75
2022/01/15 12:55:37;;;;;;;53.97;27.10;;;6.30;99.90;;;;;;5052552;28;20108;-75
2022/01/15 12:58:05;;;;;;;52.55;25.05;;;6.30;99.90;;;;;;5053133;28;20029;-74
2022/01/15 13:00:33;;;;;;;66.20;27.45;;;6.30;99.90;;;;;;5052596;28;20072;-76
2022/01/15 13:03:10;;;;;;;64.50;29.38;;;6.40;99.90;;;;;;5053062;28;20025;-75
2022/01/15 13:05:41;;;;;;;75.28;28.38;;;6.40;99.90;;;;;;5026522;28;20035;-76